Marshall, MN

12:28 PM CDT on July 28, 2016 (GMT -0500)
Marshall Municipal-Ryan

Weather History for KMML - May, 2013

Change the Weather History Date:

Monday, May 20, 2013

  Actual Average Record
Temperature  
Mean Temperature 64 °F -  
Max Temperature 68 °F 71 °F 88 °F (1955)
Min Temperature 60 °F 47 °F 24 °F (2002)
Degree Days  
Heating Degree Days 1    
Growing Degree Days 14 (Base 50)    
Moisture  
Dew Point 55 °F    
Average Humidity 76    
Maximum Humidity 88    
Minimum Humidity 56    
Precipitation  
Precipitation 0.03 in - - ()
Sea Level Pressure  
Sea Level Pressure 29.49 in    
Wind  
Wind Speed 10 mph (South)    
Max Wind Speed 24 mph    
Max Gust Speed 31 mph    
Visibility 9 miles    
Events      
Averages and records for this station are not official NWS values.
T = Trace of Precipitation, MM = Missing Value Source: NWS Daily Summary

Daily Weather History Graph

Daily Weather History Graph

Search for Another Location

Airport or City:

Trip Planner

Search our weather history database for the weather conditions in past years. The results will help you decide how hot, cold, wet, or windy it might be!

Date:

Astronomy

May. 20, 2013 Rise Set
Actual Time 5:50 AM CDT 8:49 PM CDT
Civil Twilight 5:16 AM CDT 9:24 PM CDT
Nautical Twilight 4:32 AM CDT 10:08 PM CDT
Astronomical Twilight 3:40 AM CDT 11:01 PM CDT
Moon 3:48 PM CDT (5/20) 2:57 AM CDT (5/20)
Length of Visible Light 16h 08m
Length of Day
14h 59m
Waxing Gibbous, 75% of the Moon is Illuminated
May 20
Waxing Gibbous
May 24
Full
May 31
Last Quarter
Jun 8
New
Jun 16
First Quarter

Hourly Weather History & Observations

Time (CDT) Temp. Dew Point Humidity Pressure Visibility Wind Dir Wind Speed Gust Speed Precip Events Conditions
12:15 AM 62.6 °F 59.0 °F 88% 29.55 in 5.0 mi ESE 6.9 mph - N/A   Mostly Cloudy
12:35 AM 62.6 °F 57.2 °F 82% 29.54 in 8.0 mi ESE 5.8 mph - N/A   Mostly Cloudy
12:55 AM 62.6 °F 57.2 °F 82% 29.54 in 7.0 mi SSE 5.8 mph - N/A   Overcast
1:15 AM 62.6 °F 57.2 °F 82% 29.52 in 5.0 mi SE 3.5 mph - N/A   Overcast
1:35 AM 62.6 °F 59.0 °F 88% 29.52 in 5.0 mi SE 5.8 mph - N/A   Overcast
1:55 AM 62.6 °F 59.0 °F 88% 29.50 in 4.0 mi ESE 5.8 mph - N/A   Overcast
2:15 AM 62.6 °F 59.0 °F 88% 29.50 in 3.0 mi East 9.2 mph - N/A   Mostly Cloudy
2:35 AM 62.6 °F 59.0 °F 88% 29.48 in 3.0 mi East 8.1 mph - N/A   Scattered Clouds
3:15 AM 62.6 °F 59.0 °F 88% 29.48 in 3.0 mi ESE 5.8 mph - N/A   Overcast
3:35 AM 62.6 °F 59.0 °F 88% 29.47 in 3.0 mi ESE 5.8 mph - N/A   Overcast
3:55 AM 62.6 °F 59.0 °F 88% 29.46 in 2.5 mi East 6.9 mph - N/A   Mostly Cloudy
4:15 AM 62.6 °F 59.0 °F 88% 29.46 in 2.5 mi SSE 8.1 mph - 0.01 in   Overcast
4:35 AM 62.6 °F 59.0 °F 88% 29.46 in 3.0 mi SSE 6.9 mph - 0.03 in   Overcast
4:55 AM 62.6 °F 59.0 °F 88% 29.46 in 3.0 mi South 4.6 mph - 0.03 in   Overcast
5:15 AM 62.6 °F 57.2 °F 82% 29.46 in 10.0 mi South 6.9 mph - N/A   Overcast
5:35 AM 62.6 °F 57.2 °F 82% 29.46 in 10.0 mi SW 4.6 mph - N/A   Mostly Cloudy
5:55 AM 62.6 °F 57.2 °F 82% 29.45 in 10.0 mi WNW 3.5 mph - N/A   Mostly Cloudy
6:15 AM 62.6 °F 57.2 °F 82% 29.45 in 8.0 mi West 3.5 mph - N/A   Overcast
6:35 AM 60.8 °F 57.2 °F 88% 29.46 in 6.0 mi SSW 15.0 mph 18.4 mph N/A   Overcast
6:55 AM 60.8 °F 55.4 °F 82% 29.46 in 10.0 mi SSW 6.9 mph - N/A   Mostly Cloudy
7:15 AM 60.8 °F 55.4 °F 82% 29.46 in 10.0 mi South 5.8 mph - N/A   Mostly Cloudy
7:35 AM 60.8 °F 55.4 °F 82% 29.47 in 10.0 mi South 11.5 mph - N/A   Overcast
7:55 AM 60.8 °F 55.4 °F 82% 29.47 in 10.0 mi South 9.2 mph - N/A   Overcast
8:15 AM 60.8 °F 55.4 °F 82% 29.48 in 10.0 mi South 10.4 mph - N/A   Overcast
8:35 AM 60.8 °F 53.6 °F 77% 29.48 in 10.0 mi SSW 11.5 mph - N/A   Overcast
8:55 AM 60.8 °F 55.4 °F 82% 29.48 in 10.0 mi SSW 10.4 mph 16.1 mph N/A   Overcast
9:15 AM 60.8 °F 55.4 °F 82% 29.47 in 10.0 mi South 17.3 mph - N/A   Overcast
9:35 AM 60.8 °F 53.6 °F 77% 29.48 in 10.0 mi SSW 15.0 mph - N/A   Overcast
9:55 AM 60.8 °F 55.4 °F 82% 29.48 in 10.0 mi SSW 18.4 mph - N/A   Overcast
10:35 AM 60.8 °F 55.4 °F 82% 29.48 in 10.0 mi SSW 17.3 mph - N/A   Overcast
10:55 AM 60.8 °F 55.4 °F 82% 29.48 in 10.0 mi South 15.0 mph 18.4 mph N/A   Overcast
11:15 AM 62.6 °F 53.6 °F 72% 29.48 in 10.0 mi SW 16.1 mph - N/A   Overcast
11:35 AM 62.6 °F 55.4 °F 77% 29.49 in 10.0 mi SW 16.1 mph - N/A   Overcast
11:55 AM 62.6 °F 55.4 °F 77% 29.49 in 10.0 mi SSW 18.4 mph 21.9 mph N/A   Overcast
12:15 PM 62.6 °F 53.6 °F 72% 29.49 in 10.0 mi SSW 20.7 mph 26.5 mph N/A   Overcast
12:35 PM 62.6 °F 53.6 °F 72% 29.50 in 10.0 mi SW 19.6 mph 25.3 mph N/A   Overcast
12:55 PM 64.4 °F 53.6 °F 68% 29.50 in 10.0 mi SSW 16.1 mph - N/A   Overcast
1:15 PM 64.4 °F 53.6 °F 68% 29.50 in 10.0 mi SSW 17.3 mph - N/A   Overcast
1:55 PM 68.0 °F 53.6 °F 60% 29.49 in 10.0 mi SW 21.9 mph - N/A   Mostly Cloudy
2:15 PM 68.0 °F 53.6 °F 60% 29.49 in 10.0 mi SSW 24.2 mph 27.6 mph N/A   Overcast
2:35 PM 66.2 °F 51.8 °F 60% 29.50 in 10.0 mi SW 19.6 mph 24.2 mph N/A   Overcast
2:55 PM 64.4 °F 51.8 °F 64% 29.51 in 10.0 mi SW 23.0 mph 31.1 mph N/A   Mostly Cloudy
3:15 PM 64.4 °F 53.6 °F 68% 29.51 in 10.0 mi SSW 15.0 mph - N/A   Mostly Cloudy
3:35 PM 66.2 °F 51.8 °F 60% 29.50 in 10.0 mi SW 19.6 mph 26.5 mph N/A   Overcast
3:55 PM 64.4 °F 55.4 °F 73% 29.50 in 10.0 mi South 13.8 mph 18.4 mph N/A   Mostly Cloudy
4:15 PM 66.2 °F 53.6 °F 64% 29.50 in 10.0 mi SSW 21.9 mph 26.5 mph N/A   Mostly Cloudy
4:35 PM 66.2 °F 50.0 °F 56% 29.49 in 10.0 mi SSW 18.4 mph 29.9 mph N/A   Mostly Cloudy
4:55 PM 66.2 °F 51.8 °F 60% 29.50 in 10.0 mi South 19.6 mph - N/A   Overcast
5:15 PM 64.4 °F 53.6 °F 68% 29.50 in 10.0 mi SSW 13.8 mph 23.0 mph N/A   Overcast
5:35 PM 66.2 °F 53.6 °F 64% 29.50 in 10.0 mi SSW 15.0 mph - N/A   Overcast
5:55 PM 64.4 °F 53.6 °F 68% 29.50 in 10.0 mi SSW 11.5 mph - N/A   Overcast
6:15 PM 64.4 °F 53.6 °F 68% 29.50 in 10.0 mi South 9.2 mph - N/A   Overcast
6:35 PM 64.4 °F 55.4 °F 73% 29.50 in 10.0 mi SSW 13.8 mph - N/A   Overcast
6:55 PM 64.4 °F 55.4 °F 73% 29.49 in 10.0 mi SSW 12.7 mph - N/A   Overcast
7:15 PM 66.2 °F 55.4 °F 68% 29.49 in 10.0 mi SSW 10.4 mph - N/A   Overcast
7:35 PM 66.2 °F 53.6 °F 64% 29.49 in 10.0 mi SSW 13.8 mph - N/A   Mostly Cloudy
7:55 PM 64.4 °F 55.4 °F 73% 29.49 in 10.0 mi SSW 8.1 mph - N/A   Mostly Cloudy
8:15 PM 64.4 °F 53.6 °F 68% 29.49 in 10.0 mi SW 5.8 mph - N/A   Overcast
8:35 PM 64.4 °F 53.6 °F 68% 29.49 in 10.0 mi South 5.8 mph - N/A   Mostly Cloudy
9:15 PM 62.6 °F 51.8 °F 68% 29.48 in 10.0 mi South 5.8 mph - N/A   Scattered Clouds
9:35 PM 62.6 °F 51.8 °F 68% 29.49 in 10.0 mi SSE 5.8 mph - N/A   Scattered Clouds
9:55 PM 60.8 °F 53.6 °F 77% 29.49 in 10.0 mi SE 6.9 mph - N/A   Mostly Cloudy
10:15 PM 60.8 °F 53.6 °F 77% 29.50 in 10.0 mi SE 6.9 mph - N/A   Mostly Cloudy
10:35 PM 60.8 °F 53.6 °F 77% 29.50 in 10.0 mi SE 6.9 mph - N/A   Overcast
10:55 PM 60.8 °F 53.6 °F 77% 29.49 in 10.0 mi SSE 8.1 mph - N/A   Overcast
11:15 PM 60.8 °F 53.6 °F 77% 29.49 in 10.0 mi SSE 6.9 mph - N/A   Overcast
11:35 PM 60.8 °F 53.6 °F 77% 29.48 in 10.0 mi SSE 8.1 mph - N/A   Overcast
11:55 PM 60.8 °F 53.6 °F 77% 29.49 in 10.0 mi South 5.8 mph - N/A   Overcast